createdAt,value
2018-06-08T00:01:16.111Z,97.20
2018-06-08T00:03:45.529Z,97.20
2018-06-08T00:06:14.819Z,97.30
2018-06-08T00:11:12.990Z,97.80
2018-06-08T00:13:42.299Z,98.10
2018-06-08T00:16:11.653Z,98.20
2018-06-08T00:18:40.965Z,98.10
2018-06-08T00:21:10.235Z,98.10
2018-06-08T00:23:39.513Z,98.00
2018-06-08T00:26:08.828Z,98.10
2018-06-08T00:28:38.103Z,97.90
2018-06-08T00:31:07.351Z,97.80
2018-06-08T00:33:36.658Z,97.60
2018-06-08T00:36:05.927Z,97.30
2018-06-08T00:38:35.222Z,97.30
2018-06-08T00:41:04.531Z,97.40
2018-06-08T00:43:33.821Z,97.50
2018-06-08T00:46:03.217Z,97.50
2018-06-08T00:48:32.501Z,97.50
2018-06-08T00:53:30.571Z,97.40
2018-06-08T00:55:59.902Z,97.70
2018-06-08T00:58:29.216Z,97.40
2018-06-08T01:00:58.517Z,97.30
2018-06-08T01:03:27.805Z,97.30
2018-06-08T01:05:57.036Z,97.30
2018-06-08T01:08:26.310Z,97.40
2018-06-08T01:10:55.595Z,97.50
2018-06-08T01:15:53.662Z,97.60
2018-06-08T01:18:22.977Z,97.60
2018-06-08T01:20:52.265Z,97.70
2018-06-08T01:23:21.554Z,97.60
2018-06-08T01:25:50.870Z,97.40
2018-06-08T01:28:20.150Z,97.40
2018-06-08T01:30:49.491Z,97.50
2018-06-08T01:33:18.769Z,97.60
2018-06-08T01:35:48.039Z,97.80
2018-06-08T01:38:17.303Z,97.90
2018-06-08T01:40:46.628Z,97.90
2018-06-08T01:43:15.936Z,97.90
2018-06-08T01:45:45.233Z,98.00
2018-06-08T01:48:14.543Z,98.10
2018-06-08T01:50:43.872Z,98.20
2018-06-08T01:53:13.115Z,98.30
2018-06-08T01:55:42.440Z,98.30
2018-06-08T01:58:11.749Z,98.40
2018-06-08T02:00:41.121Z,98.50
2018-06-08T02:03:10.436Z,98.50
2018-06-08T02:05:39.753Z,98.50
2018-06-08T02:08:09.046Z,98.60
2018-06-08T02:10:38.397Z,98.60
2018-06-08T02:13:07.724Z,98.90
2018-06-08T02:15:36.985Z,98.50
2018-06-08T02:18:06.359Z,98.40
2018-06-08T02:20:35.803Z,98.50
2018-06-08T02:23:05.269Z,98.40
2018-06-08T02:25:34.697Z,98.40
2018-06-08T02:28:04.043Z,98.50
2018-06-08T02:30:33.436Z,98.50
2018-06-08T02:33:02.960Z,98.70
2018-06-08T02:35:32.279Z,98.80
2018-06-08T02:38:01.595Z,98.60
2018-06-08T02:42:59.640Z,98.80
2018-06-08T02:45:29.040Z,98.80
2018-06-08T02:47:58.330Z,98.80
2018-06-08T02:50:27.623Z,98.70
2018-06-08T02:52:56.884Z,98.90
2018-06-08T02:55:26.186Z,99.00
2018-06-08T02:57:55.488Z,99.10
2018-06-08T03:02:53.592Z,99.10
2018-06-08T03:05:22.922Z,99.10
2018-06-08T03:07:52.186Z,99.20
2018-06-08T03:10:21.523Z,99.20
2018-06-08T03:12:50.806Z,99.20
2018-06-08T03:15:20.047Z,99.20
2018-06-08T03:17:49.361Z,99.30
2018-06-08T03:20:19.602Z,99.10
2018-06-08T03:25:17.673Z,99.20
2018-06-08T03:27:46.941Z,99.20
2018-06-08T03:30:16.254Z,99.10
2018-06-08T03:32:45.527Z,99.10
2018-06-08T03:35:14.862Z,99.30
2018-06-08T03:37:44.121Z,99.40
2018-06-08T03:40:13.504Z,99.40
2018-06-08T03:42:42.812Z,99.30
2018-06-08T03:45:12.089Z,99.20
2018-06-08T03:47:41.446Z,99.20
2018-06-08T03:50:10.733Z,99.30
2018-06-08T03:52:40.017Z,99.30
2018-06-08T03:55:09.444Z,99.50
2018-06-08T03:57:38.704Z,99.50
2018-06-08T04:00:08.040Z,99.40
2018-06-08T04:02:37.420Z,99.40
2018-06-08T04:05:06.742Z,99.40
2018-06-08T04:07:35.994Z,99.30
2018-06-08T04:10:05.436Z,99.20
2018-06-08T04:12:34.747Z,99.10
2018-06-08T04:15:04.183Z,99.20
2018-06-08T04:17:33.495Z,99.20
2018-06-08T04:20:03.471Z,99.20
2018-06-08T04:22:32.807Z,99.30
2018-06-08T04:25:02.087Z,99.40
2018-06-08T04:27:31.331Z,99.50
2018-06-08T04:30:00.686Z,99.40
2018-06-08T04:32:30.109Z,99.20
2018-06-08T04:34:59.401Z,99.10
2018-06-08T04:37:28.660Z,99.20
2018-06-08T04:39:57.923Z,99.60
2018-06-08T04:42:27.215Z,99.30
2018-06-08T04:44:56.493Z,99.30
2018-06-08T04:47:25.841Z,99.40
2018-06-08T04:49:55.184Z,99.60
2018-06-08T04:52:24.523Z,99.70
2018-06-08T04:54:53.894Z,99.80
2018-06-08T04:57:23.201Z,99.80
2018-06-08T04:59:52.525Z,99.80
2018-06-08T05:04:50.630Z,99.90
2018-06-08T05:07:19.874Z,99.80
2018-06-08T05:09:49.205Z,99.70
2018-06-08T05:12:18.506Z,99.80
2018-06-08T05:14:49.588Z,99.70
2018-06-08T05:17:18.872Z,99.70
2018-06-08T05:19:48.116Z,99.80
2018-06-08T05:22:17.525Z,99.90
2018-06-08T05:24:46.812Z,99.90
2018-06-08T05:27:16.413Z,99.90
2018-06-08T05:29:45.693Z,99.90
2018-06-08T05:32:15.056Z,99.90
2018-06-08T05:34:44.349Z,99.90
2018-06-08T05:37:13.682Z,99.90
2018-06-08T05:39:42.975Z,99.90
2018-06-08T05:42:12.216Z,99.90
2018-06-08T05:44:41.519Z,99.90
2018-06-08T05:47:10.816Z,99.90
2018-06-08T05:49:40.075Z,99.90
2018-06-08T05:52:09.501Z,99.90
2018-06-08T05:54:39.088Z,99.90
2018-06-08T05:57:08.369Z,99.90
2018-06-08T05:59:37.662Z,99.90
2018-06-08T06:07:04.840Z,99.90
2018-06-08T06:12:03.016Z,99.90
2018-06-08T06:14:32.342Z,99.90
2018-06-08T06:17:01.656Z,99.90
2018-06-08T06:19:31.049Z,99.90
2018-06-08T06:22:00.348Z,99.90
2018-06-08T06:24:29.624Z,99.90
2018-06-08T06:26:58.932Z,99.90
2018-06-08T06:29:28.692Z,99.90
2018-06-08T06:31:58.011Z,99.90
2018-06-08T06:34:27.370Z,99.90
2018-06-08T06:36:56.655Z,99.90
2018-06-08T06:39:25.952Z,99.90
2018-06-08T06:41:55.290Z,99.90
2018-06-08T06:44:24.551Z,99.90
2018-06-08T06:46:53.816Z,99.90
2018-06-08T06:49:23.159Z,99.90
2018-06-08T06:51:52.517Z,99.90
2018-06-08T06:54:21.921Z,99.90
2018-06-08T06:56:51.261Z,99.90
2018-06-08T06:59:20.652Z,99.90
2018-06-08T07:01:50.176Z,99.90
2018-06-08T07:04:19.732Z,99.90
2018-06-08T07:06:49.163Z,99.90
2018-06-08T07:09:18.446Z,99.90
2018-06-08T07:11:47.711Z,99.90
2018-06-08T07:14:16.975Z,99.90
2018-06-08T07:16:46.287Z,99.90
2018-06-08T07:19:15.619Z,99.90
2018-06-08T07:21:44.979Z,99.90
2018-06-08T07:29:11.983Z,99.90
2018-06-08T07:31:41.309Z,99.90
2018-06-08T07:34:10.637Z,99.90
2018-06-08T07:39:08.870Z,99.90
2018-06-08T07:41:38.177Z,99.90
2018-06-08T07:44:07.435Z,99.90
2018-06-08T07:46:36.795Z,99.90
2018-06-08T07:49:06.380Z,99.90
2018-06-08T07:51:35.794Z,99.90
2018-06-08T07:54:05.235Z,99.90
2018-06-08T07:56:34.658Z,99.90
2018-06-08T07:59:04.028Z,99.90
2018-06-08T08:01:33.795Z,99.90
2018-06-08T08:04:03.061Z,99.90
2018-06-08T08:06:32.327Z,99.90
2018-06-08T08:09:01.631Z,99.90
2018-06-08T08:11:30.954Z,99.90
2018-06-08T08:14:00.212Z,99.90
2018-06-08T08:16:29.496Z,99.90
2018-06-08T08:18:58.776Z,99.90
2018-06-08T08:21:28.065Z,99.90
2018-06-08T08:23:57.387Z,99.90
2018-06-08T08:26:26.661Z,99.90
2018-06-08T08:31:24.720Z,99.90
2018-06-08T08:33:54.092Z,99.90
2018-06-08T08:36:23.367Z,99.90
2018-06-08T08:41:21.644Z,99.90
2018-06-08T08:43:50.896Z,99.90
2018-06-08T08:46:20.175Z,99.90
2018-06-08T08:48:49.513Z,99.90
2018-06-08T08:51:18.786Z,99.90
2018-06-08T08:53:48.099Z,99.60
2018-06-08T08:56:17.520Z,99.80
2018-06-08T08:58:46.859Z,99.20
2018-06-08T09:01:18.202Z,98.90
2018-06-08T09:03:47.642Z,98.40
2018-06-08T09:06:16.995Z,98.20
2018-06-08T09:08:46.277Z,98.00
2018-06-08T09:11:15.676Z,98.20
2018-06-08T09:13:44.977Z,98.20
2018-06-08T09:16:14.372Z,97.80
2018-06-08T09:18:44.348Z,97.70
2018-06-08T09:21:13.621Z,97.80
2018-06-08T09:23:43.032Z,97.90
2018-06-08T09:26:12.367Z,97.90
2018-06-08T09:28:41.743Z,97.50
2018-06-08T09:31:11.016Z,96.90
2018-06-08T09:33:40.341Z,97.10
2018-06-08T09:36:10.652Z,96.70
2018-06-08T09:38:39.960Z,96.70
2018-06-08T09:41:09.340Z,96.20
2018-06-08T09:43:38.724Z,95.80
2018-06-08T09:46:08.168Z,95.60
2018-06-08T09:48:37.445Z,95.50
2018-06-08T09:53:35.537Z,95.20
2018-06-08T09:56:05.203Z,95.20
2018-06-08T09:58:34.532Z,95.30
2018-06-08T10:01:03.932Z,95.00
2018-06-08T10:03:33.233Z,95.20
2018-06-08T10:06:02.528Z,94.50
2018-06-08T10:08:31.825Z,94.00
2018-06-08T10:11:01.173Z,93.80
2018-06-08T10:13:30.460Z,93.30
2018-06-08T10:15:59.810Z,92.70
2018-06-08T10:18:29.082Z,92.30
2018-06-08T10:20:58.376Z,92.30
2018-06-08T10:23:27.653Z,92.00
2018-06-08T10:28:25.743Z,91.60
2018-06-08T10:30:55.023Z,91.60
2018-06-08T10:33:24.302Z,91.20
2018-06-08T10:35:53.598Z,90.90
2018-06-08T10:38:22.919Z,90.60
2018-06-08T10:40:52.326Z,90.30
2018-06-08T10:43:21.599Z,90.20
2018-06-08T10:45:50.942Z,90.50
2018-06-08T10:48:20.193Z,90.00
2018-06-08T10:50:49.482Z,88.80
2018-06-08T10:53:18.751Z,88.00
2018-06-08T10:55:48.018Z,88.30
2018-06-08T10:58:17.757Z,87.80
2018-06-08T11:00:47.210Z,86.80
2018-06-08T11:03:16.764Z,86.40
2018-06-08T11:05:46.157Z,85.40
2018-06-08T11:08:15.532Z,84.50
2018-06-08T11:10:44.972Z,83.50
2018-06-08T11:13:14.314Z,83.30
2018-06-08T11:15:43.731Z,83.30
2018-06-08T11:18:13.026Z,83.70
2018-06-08T11:20:42.504Z,84.20
2018-06-08T11:23:11.837Z,84.40
2018-06-08T11:25:41.103Z,85.30
2018-06-08T11:28:11.201Z,85.00
2018-06-08T11:30:41.556Z,85.90
2018-06-08T11:33:10.849Z,86.60
2018-06-08T11:35:40.112Z,86.20
2018-06-08T11:40:38.108Z,86.00
2018-06-08T11:45:36.129Z,86.30
2018-06-08T11:48:05.445Z,85.50
2018-06-08T11:50:34.714Z,86.10
2018-06-08T11:53:06.946Z,86.70
2018-06-08T11:55:36.251Z,86.50
2018-06-08T11:58:05.554Z,86.70
2018-06-08T12:03:03.612Z,86.20
2018-06-08T12:08:01.612Z,85.30
2018-06-08T12:10:30.875Z,84.90
2018-06-08T12:13:00.588Z,84.90
2018-06-08T12:15:29.862Z,84.50
2018-06-08T12:17:59.159Z,85.20
2018-06-08T12:20:28.440Z,85.00
2018-06-08T12:25:26.422Z,86.30
2018-06-08T12:30:24.473Z,87.90
2018-06-08T12:32:53.721Z,87.80
2018-06-08T12:35:23.052Z,87.70
2018-06-08T12:37:52.384Z,87.70
2018-06-08T12:40:21.673Z,85.80
2018-06-08T12:42:52.753Z,85.20
2018-06-08T12:45:22.147Z,84.00
2018-06-08T12:47:52.611Z,84.00
2018-06-08T12:50:21.939Z,82.80
2018-06-08T12:52:52.095Z,81.20
2018-06-08T12:55:21.552Z,78.70
2018-06-08T12:57:50.904Z,76.50
2018-06-08T13:00:20.253Z,73.60
2018-06-08T13:02:50.397Z,68.10
2018-06-08T13:05:19.756Z,66.20
2018-06-08T13:07:49.078Z,65.10
2018-06-08T13:10:18.465Z,62.20
2018-06-08T13:12:47.811Z,62.60
2018-06-08T13:15:17.107Z,60.10
2018-06-08T13:17:46.431Z,57.50
2018-06-08T13:22:45.258Z,56.10
2018-06-08T13:25:14.615Z,55.90
2018-06-08T13:27:43.894Z,55.80
2018-06-08T13:30:13.202Z,55.20
2018-06-08T13:32:44.504Z,55.50
2018-06-08T13:35:13.917Z,56.20
2018-06-08T13:37:43.209Z,56.80
2018-06-08T13:40:12.517Z,56.90
2018-06-08T13:42:41.780Z,56.80
2018-06-08T13:50:08.785Z,57.40
2018-06-08T13:52:38.079Z,58.00
2018-06-08T13:55:07.340Z,58.10
2018-06-08T13:57:36.633Z,58.80
2018-06-08T14:00:05.893Z,61.30
2018-06-08T14:02:35.136Z,62.20
2018-06-08T14:05:04.445Z,63.40
2018-06-08T14:07:33.756Z,62.80
2018-06-08T14:12:31.800Z,59.20
2018-06-08T14:15:01.061Z,56.90
2018-06-08T14:17:30.368Z,55.50
2018-06-08T14:19:59.669Z,54.10
2018-06-08T14:22:28.922Z,54.20
2018-06-08T14:24:58.178Z,55.90
2018-06-08T14:27:27.501Z,58.50
2018-06-08T14:29:56.767Z,59.50
2018-06-08T14:32:26.016Z,60.00
2018-06-08T14:34:55.295Z,61.30
2018-06-08T14:37:24.546Z,61.60
2018-06-08T14:39:53.821Z,60.80
2018-06-08T14:42:23.136Z,59.90
2018-06-08T14:47:21.243Z,56.70
2018-06-08T14:49:50.568Z,56.70
2018-06-08T14:52:19.823Z,55.20
2018-06-08T14:57:17.882Z,54.20
2018-06-08T14:59:47.146Z,52.50
2018-06-08T15:02:16.379Z,52.20
2018-06-08T15:04:45.825Z,52.40
2018-06-08T15:07:15.280Z,54.40
2018-06-08T15:09:44.595Z,56.80
2018-06-08T15:12:14.028Z,59.90
2018-06-08T15:17:12.073Z,63.20
2018-06-08T15:19:41.494Z,63.20
2018-06-08T15:22:10.820Z,62.40
2018-06-08T15:24:40.104Z,60.80
2018-06-08T15:27:09.438Z,59.30
2018-06-08T15:29:38.736Z,57.40
2018-06-08T15:32:07.999Z,57.20
2018-06-08T15:39:34.748Z,61.70
2018-06-08T15:42:04.120Z,62.40
2018-06-08T15:44:33.456Z,61.90
2018-06-08T15:47:02.756Z,62.10
2018-06-08T15:49:32.151Z,61.70
2018-06-08T15:52:01.383Z,61.80
2018-06-08T15:56:59.406Z,60.70
2018-06-08T15:59:28.672Z,59.50
2018-06-08T16:01:57.933Z,58.90
2018-06-08T16:04:27.259Z,58.20
2018-06-08T16:06:56.539Z,58.10
2018-06-08T16:09:25.795Z,58.00
2018-06-08T16:11:55.120Z,57.50
2018-06-08T16:14:24.432Z,56.90
2018-06-08T16:16:54.149Z,56.40
2018-06-08T16:19:23.441Z,56.00
2018-06-08T16:21:52.850Z,56.20
2018-06-08T16:24:22.175Z,56.20
2018-06-08T16:26:51.478Z,56.70
2018-06-08T16:31:49.540Z,56.90
2018-06-08T16:34:18.792Z,57.10
2018-06-08T16:36:48.084Z,56.70
2018-06-08T16:39:17.357Z,55.90
2018-06-08T16:44:15.624Z,52.80
2018-06-08T16:46:45.009Z,51.90
2018-06-08T16:49:14.325Z,52.10
2018-06-08T16:51:43.633Z,51.50
2018-06-08T16:54:12.956Z,49.50
2018-06-08T16:59:11.054Z,50.30
2018-06-08T17:04:09.150Z,49.30
2018-06-08T17:09:07.803Z,49.50
2018-06-08T17:11:37.256Z,48.70
2018-06-08T17:14:06.574Z,48.40
2018-06-08T17:16:35.862Z,48.10
2018-06-08T17:19:05.267Z,47.80
2018-06-08T17:21:34.521Z,48.70
2018-06-08T17:24:03.821Z,47.00
2018-06-08T17:26:33.317Z,48.50
2018-06-08T17:29:02.706Z,48.10
2018-06-08T17:31:32.004Z,47.00
2018-06-08T17:34:01.329Z,45.80
2018-06-08T17:36:30.626Z,46.60
2018-06-08T17:38:59.924Z,45.70
2018-06-08T17:41:29.213Z,50.60
2018-06-08T17:43:58.493Z,44.30
2018-06-08T17:46:27.763Z,45.70
2018-06-08T17:48:57.078Z,45.70
2018-06-08T17:51:26.409Z,43.70
2018-06-08T17:53:55.644Z,46.50
2018-06-08T17:56:24.879Z,49.60
2018-06-08T17:58:54.151Z,48.30
2018-06-08T18:01:23.432Z,50.90
2018-06-08T18:03:52.755Z,58.00
2018-06-08T18:06:22.164Z,54.20
2018-06-08T18:08:51.427Z,57.40
2018-06-08T18:11:20.697Z,51.90
2018-06-08T18:13:49.951Z,51.80
2018-06-08T18:16:19.203Z,57.30
2018-06-08T18:18:48.426Z,52.50
2018-06-08T18:21:17.710Z,50.70
2018-06-08T18:23:46.966Z,54.90
2018-06-08T18:26:16.240Z,49.10
2018-06-08T18:33:44.893Z,55.70
2018-06-08T18:36:14.153Z,57.20
2018-06-08T18:38:43.406Z,60.00
2018-06-08T18:41:12.649Z,61.60
2018-06-08T18:43:42.077Z,61.30
2018-06-08T18:46:11.672Z,60.90
2018-06-08T18:51:09.735Z,60.50
2018-06-08T18:53:39.119Z,64.50
2018-06-08T18:56:08.364Z,67.50
2018-06-08T18:58:37.629Z,69.60
2018-06-08T19:01:06.960Z,68.10
2018-06-08T19:06:05.113Z,71.50
2018-06-08T19:08:34.393Z,70.80
2018-06-08T19:11:03.665Z,74.30
2018-06-08T19:13:32.934Z,72.90
2018-06-08T19:16:02.796Z,74.90
2018-06-08T19:18:32.059Z,76.70
2018-06-08T19:23:30.659Z,77.50
2018-06-08T19:28:28.712Z,81.40
2018-06-08T19:30:58.004Z,82.60
2018-06-08T19:33:27.391Z,82.90
2018-06-08T19:35:56.761Z,85.50
2018-06-08T19:38:26.164Z,86.70
2018-06-08T19:40:55.515Z,86.20
2018-06-08T19:43:24.800Z,87.50
2018-06-08T19:45:54.175Z,87.80
2018-06-08T19:48:23.470Z,88.80
2018-06-08T19:50:52.927Z,89.10
2018-06-08T19:53:22.432Z,90.00
2018-06-08T19:55:51.708Z,90.20
2018-06-08T19:58:21.006Z,90.00
2018-06-08T20:00:50.367Z,90.90
2018-06-08T20:03:19.665Z,91.00
2018-06-08T20:08:17.747Z,92.20
2018-06-08T20:13:15.852Z,92.30
2018-06-08T20:15:45.197Z,92.60
2018-06-08T20:18:14.542Z,92.80
2018-06-08T20:23:12.528Z,92.80
2018-06-08T20:28:10.569Z,92.90
2018-06-08T20:30:39.872Z,93.30
2018-06-08T20:33:09.189Z,92.70
2018-06-08T20:35:38.859Z,93.10
2018-06-08T20:38:08.168Z,93.30
2018-06-08T20:40:37.431Z,93.40
2018-06-08T20:43:06.879Z,93.60
2018-06-08T20:45:36.187Z,93.80
2018-06-08T20:48:05.499Z,93.70
2018-06-08T20:50:34.800Z,93.60
2018-06-08T20:53:04.148Z,93.70
2018-06-08T20:55:33.457Z,93.60
2018-06-08T20:58:03.136Z,93.60
2018-06-08T21:03:01.281Z,94.10
2018-06-08T21:05:30.638Z,94.30
2018-06-08T21:07:59.900Z,94.20
2018-06-08T21:10:29.355Z,93.70
2018-06-08T21:12:58.572Z,93.70
2018-06-08T21:15:27.878Z,93.20
2018-06-08T21:17:57.284Z,93.50
2018-06-08T21:20:26.629Z,93.70
2018-06-08T21:22:55.940Z,94.60
2018-06-08T21:25:25.314Z,94.50
2018-06-08T21:27:54.643Z,94.60
2018-06-08T21:30:23.920Z,94.40
2018-06-08T21:35:22.029Z,94.90
2018-06-08T21:37:51.317Z,94.90
2018-06-08T21:40:20.711Z,94.50
2018-06-08T21:42:55.430Z,94.80
2018-06-08T21:45:24.892Z,94.70
2018-06-08T21:47:54.159Z,95.40
2018-06-08T21:50:23.525Z,95.50
2018-06-08T21:52:52.806Z,95.80
2018-06-08T21:55:22.217Z,95.80
2018-06-08T22:02:00.577Z,96.10
2018-06-08T22:04:29.858Z,95.90
2018-06-08T22:06:59.158Z,95.70
2018-06-08T22:09:28.422Z,96.20
2018-06-08T22:11:57.804Z,96.20
2018-06-08T22:14:27.137Z,95.60
2018-06-08T22:16:56.504Z,95.90
2018-06-08T22:19:25.927Z,97.10
2018-06-08T22:21:55.329Z,97.20
2018-06-08T22:24:25.351Z,97.60
2018-06-08T22:26:54.726Z,97.90
2018-06-08T22:29:24.207Z,97.90
2018-06-08T22:31:53.544Z,97.90
2018-06-08T22:34:22.872Z,97.80
2018-06-08T22:36:52.169Z,97.90
2018-06-08T22:39:21.466Z,97.70
2018-06-08T22:41:50.769Z,97.90
2018-06-08T22:44:20.025Z,97.70
2018-06-08T22:46:49.263Z,97.70
2018-06-08T22:49:18.586Z,97.90
2018-06-08T22:51:47.884Z,98.30
2018-06-08T22:54:17.157Z,98.20
2018-06-08T22:56:46.458Z,98.10
2018-06-08T22:59:15.744Z,98.50
2018-06-08T23:01:45.049Z,98.60
2018-06-08T23:04:14.371Z,98.60
2018-06-08T23:06:43.654Z,98.40
2018-06-08T23:09:12.937Z,98.20
2018-06-08T23:11:42.240Z,98.10
2018-06-08T23:14:11.530Z,98.30
2018-06-08T23:16:40.802Z,98.90
2018-06-08T23:19:10.121Z,98.90
2018-06-08T23:21:39.379Z,98.30
2018-06-08T23:24:08.611Z,98.40
2018-06-08T23:29:06.636Z,99.00
2018-06-08T23:31:35.894Z,99.30
2018-06-08T23:36:33.949Z,99.20
2018-06-08T23:39:03.355Z,99.30
2018-06-08T23:41:32.678Z,99.60
2018-06-08T23:44:01.971Z,99.40
2018-06-08T23:46:31.236Z,99.40
2018-06-08T23:49:00.534Z,99.30
2018-06-08T23:51:29.839Z,99.40
2018-06-08T23:53:59.097Z,99.40
2018-06-08T23:56:28.412Z,99.50
2018-06-08T23:58:57.627Z,99.60
